Terminal Aerodrome Forecast
Issued by NWS Newport/Morehead City, NC

Home | Current Version | Previous Version | Text Only | Print | Product List | Glossary On
Versions: 1 2 3 4 5 6 7 8 9 10 11 12 13
000
FTUS42 KMHX 270544
TAFEWN
TAF
KEWN 270544Z 2706/2806 34005KT P6SM BKN100
     FM271000 00000KT 5SM BR FEW004
     FM271300 33006KT P6SM SCT060=

USA.gov is the U.S. government's official web portal to all federal, state and local government web resources and services.